Gilman, Illinois
Current Conditions -  °F | °C
As of 12:35 AM on Sunday 26 Oct 2014 (Local Time) from KIKK Reporting Station
Clear Clear  
Wind Chill: 42°   Ceiling: Unl
Heat Index: 45°   Visibility: 10mi
Dew Point: 37°   Wind: 6mph
Humidity: 73%   Direction: 280°W
Pressure: 30"   Gusts: NA
Location:  40.77°N, 87.99°W
Report Text: KIKK 260535Z AUTO 28005KT 10SM CLR 07/03 A3000 RMK AO2 T00710026
Loading
Personal Weather Stations






























Interactive Weather Map
Tropical Storm Tracking
New forecast layout! Learn more

10-Day Weather Forecast

Advertisements
Track Severe Weather on mobile